Time;durP1;ratioP1;P1;durP2;ratioP2;P2;SDS_P1;SDS_P2;PMS_P1;PMS_P2;Temp;Humidity;BMP_temperature;BMP_pressure;BME280_temperature;BME280_humidity;BME280_pressure;Samples;Min_cycle;Max_cycle;Signal;HPM_P1;HPM_P2
2023/01/10 10:12:00;;;;;;;6.73;2.57;;;;;;;7.63;86.93;99454.97;5116019;27;39150;-82
2023/01/10 10:15:07;;;;;;;5.37;2.27;;;;;;;8.07;83.58;99446.03;5132586;27;41089;-82
2023/01/10 10:30:27;;;;;;;4.43;2.27;;;;;;;9.57;74.90;99485.81;5069068;28;40930;-81
2023/01/10 10:33:35;;;;;;;4.87;2.00;;;;;;;9.63;73.25;99472.31;5064334;28;42098;-81
2023/01/10 10:36:15;;;;;;;4.47;1.90;;;;;;;9.77;71.16;99502.53;5071303;28;41090;-82
2023/01/10 10:39:24;;;;;;;6.33;2.60;;;;;;;9.56;70.75;99497.34;5071668;28;38995;-82
2023/01/10 10:41:53;;;;;;;8.23;2.17;;;;;;;9.52;71.42;99492.28;5071265;28;40673;-82
2023/01/10 10:44:41;;;;;;;5.13;2.00;;;;;;;9.51;72.32;99486.13;5054432;28;41876;-83
2023/01/10 11:10:47;;;;;;;6.47;1.97;;;;;;;9.31;71.67;99481.78;5032677;28;40842;-82
2023/01/10 11:13:20;;;;;;;3.53;1.80;;;;;;;9.25;72.15;99483.88;5033327;28;41666;-81
2023/01/10 11:15:49;;;;;;;5.73;1.97;;;;;;;9.24;72.07;99490.09;5033986;28;42272;-81
2023/01/10 11:21:39;;;;;;;8.17;3.57;;;;;;;9.23;70.42;99506.88;5020697;28;41096;-82
2023/01/10 11:24:27;;;;;;;6.10;2.00;;;;;;;9.08;70.32;99483.78;5025196;28;41866;-81
2023/01/10 11:30:23;;;;;;;5.77;1.97;;;;;;;9.02;68.81;99475.22;5059880;28;38837;-82
2023/01/10 11:32:54;;;;;;;3.80;1.80;;;;;;;9.23;68.12;99504.22;5076665;28;41018;-82
2023/01/10 11:35:56;;;;;;;6.13;1.63;;;;;;;9.39;68.25;99510.53;5059953;28;42170;-82
2023/01/10 11:41:34;;;;;;;4.57;2.00;;;;;;;9.34;67.46;99471.06;5059094;28;39929;-82
2023/01/10 11:44:24;;;;;;;7.37;1.90;;;;;;;9.47;65.84;99491.63;5058244;28;40720;-82
2023/01/10 11:47:19;;;;;;;4.63;1.83;;;;;;;9.60;64.77;99525.34;5068394;28;41995;-82
2023/01/10 11:53:23;;;;;;;5.10;1.83;;;;;;;9.15;65.76;99437.69;5058641;28;41399;-82
2023/01/10 11:56:24;;;;;;;7.40;2.00;;;;;;;9.58;63.83;99526.34;5054397;28;40500;-82
2023/01/10 12:02:17;;;;;;;4.70;1.83;;;;;;;9.56;64.78;99512.34;5039573;28;41341;-82
2023/01/10 12:05:00;;;;;;;3.70;1.90;;;;;;;9.57;63.99;99517.56;5044600;28;39708;-82
2023/01/10 12:07:28;;;;;;;7.53;1.90;;;;;;;9.31;63.55;99481.78;5059876;28;41640;-82
2023/01/10 12:10:23;;;;;;;10.63;2.27;;;;;;;9.53;62.88;99531.84;5058963;28;43780;-82
2023/01/10 12:12:57;;;;;;;6.43;2.53;;;;;;;9.50;63.03;99532.00;5059341;28;44600;-84
2023/01/10 12:15:30;;;;;;;5.03;2.03;;;;;;;9.56;63.57;99528.19;5076288;28;39145;-83
2023/01/10 12:18:05;;;;;;;4.53;1.73;;;;;;;9.34;62.66;99491.34;5076399;28;40529;-82
2023/01/10 12:21:22;;;;;;;7.23;2.67;;;;;;;9.61;62.76;99527.06;5092137;28;43642;-83
2023/01/10 12:23:53;;;;;;;6.87;2.00;;;;;;;9.45;62.50;99499.63;5037033;28;42813;-82
2023/01/10 12:26:41;;;;;;;3.67;2.20;;;;;;;9.55;62.72;99506.19;5039084;28;40174;-84
2023/01/10 12:29:33;;;;;;;7.37;2.27;;;;;;;9.40;62.69;99477.84;5054737;28;41059;-83
2023/01/10 12:32:20;;;;;;;6.03;2.23;;;;;;;9.62;62.21;99515.56;5038712;28;41923;-83
2023/01/10 12:34:55;;;;;;;6.00;1.93;;;;;;;9.69;62.84;99513.47;5039228;28;40964;-83
2023/01/10 12:38:03;;;;;;;6.33;2.20;;;;;;;9.84;62.95;99506.56;5055300;28;39452;-83
2023/01/10 12:56:58;;;;;;;5.30;1.83;;;;;;;11.12;59.44;99488.41;5053998;28;42746;-84
2023/01/10 12:59:46;;;;;;;5.80;1.63;;;;;;;11.32;59.40;99523.56;5051716;28;41121;-83
2023/01/10 13:16:51;;;;;;;8.50;2.30;;;;;;;13.24;54.29;99548.56;5069331;28;40133;-83
2023/01/10 13:23:15;;;;;;;4.00;2.07;;;;;;;12.24;56.04;99514.78;5050591;28;42276;-82
2023/01/10 13:26:04;;;;;;;4.90;2.07;;;;;;;11.99;56.13;99514.53;5048993;28;43372;-80
2023/01/10 13:28:36;;;;;;;7.40;2.47;;;;;;;11.97;55.78;99543.81;5065439;28;38542;-83
2023/01/10 13:31:22;;;;;;;5.37;1.87;;;;;;;11.83;56.97;99530.47;5050119;28;41099;-84
2023/01/10 13:33:55;;;;;;;5.17;1.90;;;;;;;11.54;57.38;99502.88;5043507;28;41824;-83
2023/01/10 13:36:46;;;;;;;3.17;1.60;;;;;;;11.48;58.28;99492.63;5037720;28;43126;-83
2023/01/10 13:43:32;;;;;;;5.70;2.00;;;;;;;11.14;57.49;99483.88;5046218;28;41569;-82
2023/01/10 13:46:51;;;;;;;5.50;1.90;;;;;;;11.35;58.35;99528.72;5058066;28;43144;-81
2023/01/10 13:49:42;;;;;;;5.43;1.93;;;;;;;11.06;57.63;99540.91;5057466;28;43097;-83
2023/01/10 13:52:53;;;;;;;5.73;1.90;;;;;;;10.75;58.88;99497.50;5058093;28;39106;-82
2023/01/10 13:55:56;;;;;;;6.27;2.43;;;;;;;10.73;58.75;99493.22;5055487;28;40509;-82
2023/01/10 14:04:20;;;;;;;6.90;2.37;;;;;;;10.79;59.67;99522.00;5089864;28;40306;-83
2023/01/10 14:06:56;;;;;;;5.90;2.00;;;;;;;10.49;59.98;99499.78;5057842;28;40344;-81
2023/01/10 14:09:52;;;;;;;5.97;2.17;;;;;;;10.35;60.06;99519.88;5057286;28;41723;-82
2023/01/10 14:15:09;;;;;;;8.87;2.10;;;;;;;9.95;61.11;99498.97;5089467;28;40674;-83
2023/01/10 14:17:38;;;;;;;5.50;2.37;;;;;;;9.99;61.54;99506.69;5074639;28;42101;-86
2023/01/10 14:20:37;;;;;;;9.67;2.70;;;;;;;9.98;61.58;99525.28;5057479;28;44486;-83
2023/01/10 14:23:08;;;;;;;9.00;2.10;;;;;;;9.46;61.73;99464.34;5012384;28;43578;-83
2023/01/10 14:26:05;;;;;;;6.77;2.23;;;;;;;9.63;62.04;99509.34;5027628;28;38894;-82
2023/01/10 14:28:54;;;;;;;8.80;2.23;;;;;;;9.52;62.78;99494.94;5016480;28;40840;-82
2023/01/10 14:37:06;;;;;;;12.87;3.57;;;;;;;9.13;63.23;99453.59;5089987;28;40673;-83
2023/01/10 14:39:54;;;;;;;9.20;3.37;;;;;;;9.07;63.28;99453.88;5057758;28;40796;-84
2023/01/10 14:42:30;;;;;;;8.37;2.87;;;;;;;9.17;63.71;99478.06;5057152;28;42690;-82
2023/01/10 14:45:03;;;;;;;5.63;2.47;;;;;;;9.21;63.23;99474.38;5057419;28;42196;-83
2023/01/10 14:50:35;;;;;;;7.40;1.93;;;;;;;9.09;63.67;99467.00;5074090;28;42154;-83
2023/01/10 14:53:30;;;;;;;7.80;2.23;;;;;;;9.05;63.91;99473.34;5058192;28;42921;-84
2023/01/10 14:58:42;;;;;;;8.97;2.17;;;;;;;8.86;64.62;99463.66;5060270;28;39083;-83
2023/01/10 15:01:20;;;;;;;10.30;2.10;;;;;;;8.61;64.83;99437.50;5060504;28;40851;-83
2023/01/10 15:03:50;;;;;;;7.10;2.27;;;;;;;8.69;64.73;99476.75;5060715;28;43124;-83
2023/01/10 15:06:37;;;;;;;11.17;2.23;;;;;;;8.28;64.66;99423.97;5076893;28;41007;-82
2023/01/10 15:09:22;;;;;;;7.23;2.10;;;;;;;8.48;64.94;99464.53;5060628;28;38674;-84
2023/01/10 15:11:51;;;;;;;8.20;2.63;;;;;;;8.37;65.40;99462.34;5060432;28;40782;-82
2023/01/10 15:14:22;;;;;;;8.33;2.40;;;;;;;8.23;65.42;99473.47;5077123;28;43097;-83
2023/01/10 15:16:53;;;;;;;14.30;2.90;;;;;;;8.21;65.54;99467.41;5060389;28;42407;-82
2023/01/10 15:19:23;;;;;;;9.93;2.90;;;;;;;8.09;66.28;99454.75;5076512;28;40377;-83
2023/01/10 15:21:52;;;;;;;8.90;2.90;;;;;;;8.02;66.48;99458.56;5060539;28;40654;-83
2023/01/10 15:25:06;;;;;;;7.60;2.53;;;;;;;7.64;66.92;99403.97;5060152;28;42151;-82
2023/01/10 15:27:39;;;;;;;10.07;2.63;;;;;;;7.80;66.85;99441.91;5058806;28;41465;-82
2023/01/10 15:33:39;;;;;;;7.80;2.77;;;;;;;7.78;67.40;99446.41;5059975;28;40973;-82
2023/01/10 15:36:28;;;;;;;7.73;2.40;;;;;;;7.41;67.61;99397.00;5060047;28;41823;-82
2023/01/10 15:38:56;;;;;;;9.63;2.50;;;;;;;7.60;68.32;99428.72;5059653;28;41852;-83
2023/01/10 15:41:28;;;;;;;7.13;3.03;;;;;;;7.51;68.48;99422.06;5059813;28;39177;-83
2023/01/10 15:44:22;;;;;;;11.33;2.73;;;;;;;7.57;68.33;99435.81;5059787;28;40886;-83
2023/01/10 15:47:33;;;;;;;6.63;2.40;;;;;;;7.31;68.53;99396.50;5076146;28;43625;-83
2023/01/10 15:50:01;;;;;;;8.83;2.50;;;;;;;7.40;69.25;99427.78;5059409;28;40838;-82
2023/01/10 15:55:46;;;;;;;10.27;2.60;;;;;;;7.04;70.05;99376.56;5091491;28;42033;-83
2023/01/10 15:58:43;;;;;;;8.80;2.50;;;;;;;7.15;70.33;99400.69;5059712;28;42781;-83
2023/01/10 16:01:15;;;;;;;8.10;2.63;;;;;;;7.25;70.52;99407.31;5059591;28;42620;-83
2023/01/10 16:03:45;;;;;;;11.30;2.90;;;;;;;6.94;71.09;99369.91;5076072;28;39144;-83
2023/01/10 16:06:21;;;;;;;9.27;2.67;;;;;;;7.13;71.46;99403.38;5059532;28;42126;-81
2023/01/10 16:08:52;;;;;;;9.23;2.63;;;;;;;7.04;71.48;99387.94;5059493;28;43181;-83
2023/01/10 16:14:07;;;;;;;9.90;2.90;;;;;;;7.20;71.53;99415.38;5053649;28;40263;-84
